createdAt,value
2022-09-23T00:01:07.523Z,3.70
2022-09-23T00:03:41.893Z,3.30
2022-09-23T00:06:14.860Z,3.90
2022-09-23T00:08:45.435Z,4.00
2022-09-23T00:11:18.548Z,5.00
2022-09-23T00:13:51.259Z,3.30
2022-09-23T00:16:24.104Z,5.00
2022-09-23T00:18:55.308Z,5.40
2022-09-23T00:21:26.346Z,5.10
2022-09-23T00:23:57.129Z,4.20
2022-09-23T00:26:28.022Z,7.10
2022-09-23T00:28:58.632Z,4.30
2022-09-23T00:31:29.571Z,3.00
2022-09-23T00:34:02.064Z,4.10
2022-09-23T00:36:33.406Z,5.40
2022-09-23T00:39:04.702Z,3.80
2022-09-23T00:41:35.735Z,5.40
2022-09-23T00:44:36.957Z,3.90
2022-09-23T00:47:12.602Z,3.80
2022-09-23T00:49:45.451Z,4.10
2022-09-23T00:52:19.171Z,3.70
2022-09-23T00:54:55.079Z,3.60
2022-09-23T00:57:27.135Z,4.90
2022-09-23T00:59:58.248Z,5.00
2022-09-23T01:02:29.396Z,4.00
2022-09-23T01:05:02.186Z,7.80
2022-09-23T01:10:03.084Z,4.70
2022-09-23T01:12:59.849Z,3.20
2022-09-23T01:15:40.571Z,3.70
2022-09-23T01:18:24.478Z,4.70
2022-09-23T01:21:11.375Z,3.10
2022-09-23T01:24:05.629Z,3.90
2022-09-23T01:26:56.755Z,3.30
2022-09-23T01:29:58.021Z,3.70
2022-09-23T01:32:39.428Z,5.10
2022-09-23T01:35:18.207Z,3.70
2022-09-23T01:37:53.375Z,2.50
2022-09-23T01:40:31.006Z,2.60
2022-09-23T01:43:10.524Z,5.80
2022-09-23T01:45:45.331Z,4.50
2022-09-23T01:48:22.949Z,5.70
2022-09-23T01:50:59.588Z,3.20
2022-09-23T01:53:38.830Z,3.90
2022-09-23T01:56:15.123Z,4.90
2022-09-23T01:58:52.248Z,4.20
2022-09-23T02:01:29.623Z,7.20
2022-09-23T02:04:05.811Z,4.70
2022-09-23T02:06:41.439Z,4.70
2022-09-23T02:09:16.819Z,4.60
2022-09-23T02:11:49.728Z,3.70
2022-09-23T02:14:25.468Z,5.10
2022-09-23T02:17:00.061Z,4.30
2022-09-23T02:19:35.393Z,3.40
2022-09-23T02:22:10.122Z,4.00
2022-09-23T02:24:42.011Z,6.00
2022-09-23T02:27:20.336Z,3.20
2022-09-23T02:29:58.368Z,4.60
2022-09-23T02:32:37.263Z,3.70
2022-09-23T02:35:18.023Z,8.70
2022-09-23T02:37:53.172Z,4.20
2022-09-23T02:40:29.193Z,3.70
2022-09-23T02:43:07.347Z,4.10
2022-09-23T02:45:39.182Z,3.70
2022-09-23T02:48:14.890Z,5.90
2022-09-23T02:50:47.714Z,5.60
2022-09-23T02:55:47.966Z,4.00
2022-09-23T02:58:18.884Z,4.80
2022-09-23T03:01:05.065Z,3.40
2022-09-23T03:03:48.516Z,4.70
2022-09-23T03:06:30.419Z,5.50
2022-09-23T03:09:07.365Z,4.60
2022-09-23T03:11:41.606Z,5.60
2022-09-23T03:14:23.333Z,6.20
2022-09-23T03:17:00.555Z,3.50
2022-09-23T03:19:34.319Z,3.90
2022-09-23T03:22:09.763Z,3.80
2022-09-23T03:24:44.773Z,3.10
2022-09-23T03:27:18.706Z,6.20
2022-09-23T03:29:52.395Z,3.90
2022-09-23T03:32:27.981Z,5.60
2022-09-23T03:35:01.879Z,6.50
2022-09-23T03:37:38.718Z,5.10
2022-09-23T03:40:16.124Z,3.80
2022-09-23T03:42:48.911Z,3.60
2022-09-23T03:45:23.052Z,6.10
2022-09-23T03:47:53.959Z,5.10
2022-09-23T03:50:24.822Z,6.00
2022-09-23T03:52:55.762Z,12.70
2022-09-23T03:55:26.428Z,7.20
2022-09-23T03:57:57.026Z,6.90
2022-09-23T04:00:27.998Z,6.70
2022-09-23T04:02:58.560Z,6.60
2022-09-23T04:05:29.357Z,8.30
2022-09-23T04:08:00.079Z,6.00
2022-09-23T04:10:30.638Z,7.30
2022-09-23T04:13:01.241Z,7.40
2022-09-23T04:15:31.859Z,8.80
2022-09-23T04:18:02.416Z,10.60
2022-09-23T04:20:33.110Z,7.10
2022-09-23T04:23:03.723Z,5.80
2022-09-23T04:25:34.442Z,7.50
2022-09-23T04:28:05.299Z,8.50
2022-09-23T04:30:35.954Z,8.00
2022-09-23T04:33:06.779Z,10.80
2022-09-23T04:35:40.345Z,10.00
2022-09-23T04:38:12.035Z,10.70
2022-09-23T04:40:43.022Z,13.90
2022-09-23T04:43:15.565Z,11.50
2022-09-23T04:45:46.710Z,15.20
2022-09-23T04:48:17.666Z,9.60
2022-09-23T04:50:48.857Z,14.20
2022-09-23T04:53:19.779Z,9.10
2022-09-23T04:55:52.284Z,14.30
2022-09-23T04:58:23.048Z,10.60
2022-09-23T05:00:53.708Z,13.20
2022-09-23T05:03:25.053Z,10.70
2022-09-23T05:05:59.895Z,9.50
2022-09-23T05:08:30.703Z,11.70
2022-09-23T05:11:04.787Z,10.80
2022-09-23T05:13:36.448Z,10.80
2022-09-23T05:16:09.779Z,11.20
2022-09-23T05:18:42.857Z,14.00
2022-09-23T05:21:15.344Z,13.20
2022-09-23T05:23:52.408Z,10.20
2022-09-23T05:26:25.469Z,16.50
2022-09-23T05:28:57.412Z,14.90
2022-09-23T05:31:29.920Z,13.50
2022-09-23T05:34:02.360Z,13.70
2022-09-23T05:36:38.384Z,15.10
2022-09-23T05:39:10.533Z,13.00
2022-09-23T05:41:43.482Z,13.80
2022-09-23T05:44:14.156Z,17.40
2022-09-23T05:46:44.830Z,16.00
2022-09-23T05:49:15.523Z,16.70
2022-09-23T05:51:46.443Z,17.50
2022-09-23T05:54:17.306Z,12.90
2022-09-23T05:56:47.919Z,25.10
2022-09-23T05:59:18.534Z,21.30
2022-09-23T06:01:52.044Z,26.50
2022-09-23T06:04:25.429Z,13.50
2022-09-23T06:07:00.346Z,9.40
2022-09-23T06:09:36.547Z,12.00
2022-09-23T06:12:08.321Z,10.30
2022-09-23T06:14:39.005Z,8.30
2022-09-23T06:17:09.660Z,8.40
2022-09-23T06:19:40.296Z,11.00
2022-09-23T06:22:11.902Z,7.20
2022-09-23T06:24:42.623Z,9.40
2022-09-23T06:27:13.419Z,8.80
2022-09-23T06:29:44.028Z,12.60
2022-09-23T06:32:14.779Z,9.30
2022-09-23T06:34:51.436Z,11.10
2022-09-23T06:37:23.396Z,13.40
2022-09-23T06:39:54.920Z,7.00
2022-09-23T06:42:25.566Z,9.90
2022-09-23T06:44:56.194Z,8.60
2022-09-23T06:47:26.846Z,8.20
2022-09-23T06:49:57.748Z,10.80
2022-09-23T06:52:28.785Z,7.20
2022-09-23T06:55:00.987Z,7.10
2022-09-23T06:57:33.854Z,6.30
2022-09-23T07:00:05.192Z,7.40
2022-09-23T07:02:36.337Z,6.30
2022-09-23T07:05:09.472Z,6.30
2022-09-23T07:07:40.217Z,6.50
2022-09-23T07:10:12.794Z,8.70
2022-09-23T07:12:43.359Z,5.30
2022-09-23T07:15:15.395Z,5.50
2022-09-23T07:17:46.038Z,4.90
2022-09-23T07:20:17.968Z,3.70
2022-09-23T07:22:53.223Z,7.50
2022-09-23T07:25:24.183Z,5.30
2022-09-23T07:27:56.778Z,3.40
2022-09-23T07:30:27.518Z,4.70
2022-09-23T07:32:58.231Z,3.80
2022-09-23T07:35:29.143Z,5.80
2022-09-23T07:37:59.808Z,5.90
2022-09-23T07:40:30.545Z,4.70
2022-09-23T07:43:02.095Z,6.20
2022-09-23T07:45:33.902Z,4.50
2022-09-23T07:48:05.283Z,5.90
2022-09-23T07:50:35.966Z,4.30
2022-09-23T07:53:07.937Z,5.60
2022-09-23T07:55:38.946Z,4.90
2022-09-23T07:58:09.492Z,4.60
2022-09-23T08:00:40.555Z,4.60
2022-09-23T08:03:11.334Z,4.50
2022-09-23T08:05:42.162Z,5.00
2022-09-23T08:08:14.156Z,4.80
2022-09-23T08:10:45.907Z,5.30
2022-09-23T08:13:16.443Z,3.90
2022-09-23T08:15:55.195Z,3.10
2022-09-23T08:18:26.655Z,3.20
2022-09-23T08:20:57.251Z,3.60
2022-09-23T08:23:33.283Z,3.50
2022-09-23T08:26:08.497Z,3.80
2022-09-23T08:28:41.099Z,2.80
2022-09-23T08:31:13.713Z,5.80
2022-09-23T08:33:44.426Z,4.10
2022-09-23T08:36:15.086Z,2.80
2022-09-23T08:38:45.852Z,4.90
2022-09-23T08:41:26.453Z,5.10
2022-09-23T08:44:03.580Z,3.50
2022-09-23T08:46:39.148Z,3.30
2022-09-23T08:49:15.195Z,4.80
2022-09-23T08:51:49.031Z,2.70
2022-09-23T08:54:20.474Z,2.70
2022-09-23T08:56:53.295Z,4.90
2022-09-23T08:59:36.808Z,3.10
2022-09-23T09:02:16.606Z,3.60
2022-09-23T09:04:50.738Z,5.70
2022-09-23T09:07:36.530Z,4.70
2022-09-23T09:10:16.610Z,2.00
2022-09-23T09:12:50.903Z,3.70
2022-09-23T09:15:26.624Z,4.20
2022-09-23T09:18:06.537Z,2.80
2022-09-23T09:20:42.637Z,2.20
2022-09-23T09:23:22.709Z,3.10
2022-09-23T09:25:55.564Z,1.90
2022-09-23T09:28:31.124Z,2.90
2022-09-23T09:31:08.065Z,2.70
2022-09-23T09:33:45.865Z,2.70
2022-09-23T09:36:30.872Z,2.50
2022-09-23T09:39:01.885Z,3.40
2022-09-23T09:41:32.941Z,3.30
2022-09-23T09:44:10.985Z,3.10
2022-09-23T09:46:56.744Z,4.40
2022-09-23T09:49:40.103Z,4.60
2022-09-23T09:52:24.316Z,1.60
2022-09-23T09:55:00.588Z,1.30
2022-09-23T09:57:36.356Z,2.40
2022-09-23T10:00:35.443Z,1.30
2022-09-23T10:03:24.332Z,1.80
2022-09-23T10:05:57.717Z,2.20
2022-09-23T10:08:33.455Z,3.80
2022-09-23T10:11:07.006Z,2.00
2022-09-23T10:13:37.951Z,2.30
2022-09-23T10:16:09.535Z,2.50
2022-09-23T10:18:50.807Z,2.40
2022-09-23T10:21:27.933Z,1.90
2022-09-23T10:24:03.133Z,11.00
2022-09-23T10:26:36.233Z,7.50
2022-09-23T10:29:21.265Z,2.00
2022-09-23T10:32:13.418Z,2.40
2022-09-23T10:34:46.794Z,1.90
2022-09-23T10:37:31.226Z,1.20
2022-09-23T10:40:30.209Z,0.90
2022-09-23T10:43:41.261Z,1.40
2022-09-23T10:46:41.750Z,1.50
2022-09-23T10:49:36.582Z,2.60
2022-09-23T10:52:22.296Z,5.20
2022-09-23T10:55:06.665Z,2.30
2022-09-23T10:57:54.212Z,3.30
2022-09-23T11:00:30.235Z,1.70
2022-09-23T11:03:26.337Z,6.60
2022-09-23T11:06:13.314Z,2.70
2022-09-23T11:08:56.400Z,1.00
2022-09-23T11:11:39.409Z,1.30
2022-09-23T11:14:25.998Z,1.10
2022-09-23T11:17:16.250Z,1.00
2022-09-23T11:22:52.769Z,1.60
2022-09-23T11:25:36.248Z,1.60
2022-09-23T11:28:26.128Z,1.70
2022-09-23T11:31:10.274Z,1.00
2022-09-23T11:33:53.611Z,1.50
2022-09-23T11:36:32.924Z,1.80
2022-09-23T11:39:09.362Z,1.40
2022-09-23T11:41:42.413Z,1.40
2022-09-23T11:44:20.586Z,2.70
2022-09-23T11:46:56.905Z,1.80
2022-09-23T11:49:32.538Z,3.40
2022-09-23T11:52:11.475Z,3.20
2022-09-23T11:54:50.656Z,2.30
2022-09-23T11:57:35.610Z,2.00
2022-09-23T12:00:20.076Z,2.40
2022-09-23T12:03:09.842Z,1.00
2022-09-23T12:05:45.844Z,3.30
2022-09-23T12:08:25.585Z,1.20
2022-09-23T12:11:06.089Z,1.40
2022-09-23T12:13:45.977Z,0.90
2022-09-23T12:16:45.733Z,1.50
2022-09-23T12:19:30.929Z,1.30
2022-09-23T12:22:19.386Z,1.30
2022-09-23T12:24:58.515Z,1.70
2022-09-23T12:27:36.985Z,1.30
2022-09-23T12:30:15.370Z,4.10
2022-09-23T12:32:46.648Z,1.80
2022-09-23T12:35:32.197Z,1.00
2022-09-23T12:38:03.989Z,1.60
2022-09-23T12:40:43.880Z,2.90
2022-09-23T12:43:30.295Z,2.00
2022-09-23T12:46:19.468Z,1.40
2022-09-23T12:49:02.179Z,2.00
2022-09-23T12:51:34.104Z,1.80
2022-09-23T12:54:25.492Z,1.30
2022-09-23T12:57:10.284Z,2.60
2022-09-23T13:00:15.569Z,2.20
2022-09-23T13:03:13.892Z,1.60
2022-09-23T13:06:10.949Z,1.40
2022-09-23T13:08:46.862Z,1.20
2022-09-23T13:11:24.123Z,1.60
2022-09-23T13:13:56.268Z,2.10
2022-09-23T13:16:31.352Z,6.30
2022-09-23T13:19:03.555Z,2.60
2022-09-23T13:22:09.210Z,2.60
2022-09-23T13:24:54.309Z,2.10
2022-09-23T13:27:29.044Z,3.50
2022-09-23T13:30:03.270Z,6.90
2022-09-23T13:32:37.975Z,6.30
2022-09-23T13:35:22.745Z,2.20
2022-09-23T13:37:54.586Z,1.80
2022-09-23T13:40:28.177Z,2.60
2022-09-23T13:43:02.244Z,2.00
2022-09-23T13:45:37.660Z,2.30
2022-09-23T13:48:15.826Z,3.30
2022-09-23T13:50:50.455Z,3.60
2022-09-23T13:53:27.039Z,2.80
2022-09-23T13:56:06.580Z,2.10
2022-09-23T13:58:37.858Z,1.20
2022-09-23T14:01:11.217Z,1.00
2022-09-23T14:03:41.927Z,3.50
2022-09-23T14:06:15.243Z,3.30
2022-09-23T14:08:48.714Z,1.50
2022-09-23T14:11:22.578Z,1.40
2022-09-23T14:13:55.133Z,1.70
2022-09-23T14:16:28.112Z,1.60
2022-09-23T14:19:01.199Z,2.40
2022-09-23T14:21:35.327Z,1.70
2022-09-23T14:24:21.558Z,1.30
2022-09-23T14:26:56.995Z,1.70
2022-09-23T14:29:30.578Z,1.70
2022-09-23T14:32:04.280Z,5.30
2022-09-23T14:35:09.273Z,2.10
2022-09-23T14:38:02.535Z,1.60
2022-09-23T14:40:35.960Z,1.50
2022-09-23T14:43:15.753Z,2.10
2022-09-23T14:45:51.818Z,2.40
2022-09-23T14:48:28.925Z,1.30
2022-09-23T14:51:01.862Z,2.90
2022-09-23T14:53:37.006Z,5.10
2022-09-23T14:56:22.738Z,4.50
2022-09-23T14:58:56.116Z,6.00
2022-09-23T15:01:37.279Z,3.60
2022-09-23T15:04:32.298Z,2.30
2022-09-23T15:07:07.572Z,3.70
2022-09-23T15:09:42.722Z,2.60
2022-09-23T15:12:20.693Z,2.90
2022-09-23T15:14:56.572Z,1.90
2022-09-23T15:17:35.088Z,2.40
2022-09-23T15:20:10.017Z,2.20
2022-09-23T15:22:48.341Z,1.60
2022-09-23T15:28:02.393Z,5.20
2022-09-23T15:30:35.424Z,7.20
2022-09-23T15:33:08.229Z,3.40
2022-09-23T15:35:42.781Z,2.90
2022-09-23T15:38:13.389Z,7.60
2022-09-23T15:40:44.941Z,6.60
2022-09-23T15:43:21.193Z,5.70
2022-09-23T15:45:54.273Z,3.40
2022-09-23T15:48:28.650Z,5.60
2022-09-23T15:51:03.941Z,4.90
2022-09-23T15:53:34.821Z,3.10
2022-09-23T15:56:06.191Z,4.40
2022-09-23T15:58:36.879Z,5.70
2022-09-23T16:01:08.431Z,4.80
2022-09-23T16:03:39.170Z,4.40
2022-09-23T16:06:13.880Z,4.30
2022-09-23T16:08:45.215Z,7.50
2022-09-23T16:11:19.823Z,3.20
2022-09-23T16:13:50.537Z,4.00
2022-09-23T16:16:22.174Z,3.50
2022-09-23T16:18:53.288Z,6.30
2022-09-23T16:21:26.623Z,6.40
2022-09-23T16:23:59.133Z,4.10
2022-09-23T16:26:31.665Z,4.20
2022-09-23T16:29:02.703Z,6.50
2022-09-23T16:31:33.403Z,4.90
2022-09-23T16:34:04.102Z,7.40
2022-09-23T16:36:36.356Z,4.60
2022-09-23T16:39:10.158Z,5.60
2022-09-23T16:41:43.923Z,7.40
2022-09-23T16:44:16.289Z,6.50
2022-09-23T16:49:16.109Z,12.40
2022-09-23T16:51:46.680Z,9.40
2022-09-23T16:54:19.295Z,8.00
2022-09-23T16:56:50.550Z,6.00
2022-09-23T16:59:21.348Z,6.70
2022-09-23T17:02:09.658Z,6.30
2022-09-23T17:04:40.471Z,7.40
2022-09-23T17:07:11.137Z,7.40
2022-09-23T17:09:41.790Z,8.60
2022-09-23T17:12:21.083Z,7.10
2022-09-23T17:14:52.475Z,5.90
2022-09-23T17:17:23.387Z,8.90
2022-09-23T17:19:55.996Z,9.50
2022-09-23T17:22:26.648Z,7.20
2022-09-23T17:24:58.003Z,8.30
2022-09-23T17:27:28.728Z,7.90
2022-09-23T17:29:59.412Z,6.20
2022-09-23T17:32:30.200Z,7.60
2022-09-23T17:35:04.533Z,6.50
2022-09-23T17:37:35.290Z,5.30
2022-09-23T17:40:07.339Z,9.90
2022-09-23T17:42:42.643Z,10.60
2022-09-23T17:45:14.625Z,6.50
2022-09-23T17:47:54.802Z,6.50
2022-09-23T17:50:25.534Z,12.60
2022-09-23T17:52:56.219Z,7.40
2022-09-23T17:55:27.035Z,6.40
2022-09-23T17:57:57.674Z,8.80
2022-09-23T18:00:29.003Z,5.60
2022-09-23T18:02:59.744Z,6.10
2022-09-23T18:05:30.432Z,7.70
2022-09-23T18:08:05.778Z,7.20
2022-09-23T18:10:36.802Z,7.70
2022-09-23T18:13:07.771Z,6.40
2022-09-23T18:15:40.686Z,8.00
2022-09-23T18:18:11.380Z,6.20
2022-09-23T18:20:41.941Z,5.40
2022-09-23T18:23:13.269Z,5.50
2022-09-23T18:25:43.966Z,5.40
2022-09-23T18:28:14.544Z,4.60
2022-09-23T18:30:55.101Z,5.80
2022-09-23T18:33:29.187Z,9.10
2022-09-23T18:36:02.285Z,9.50
2022-09-23T18:38:33.570Z,5.50
2022-09-23T18:41:04.377Z,5.30
2022-09-23T18:43:41.448Z,6.80
2022-09-23T18:46:16.533Z,8.70
2022-09-23T18:49:05.238Z,8.60
2022-09-23T18:51:38.396Z,10.20
2022-09-23T18:54:09.777Z,6.80
2022-09-23T18:56:44.617Z,10.00
2022-09-23T18:59:20.655Z,7.50
2022-09-23T19:01:54.034Z,10.00
2022-09-23T19:04:27.279Z,8.90
2022-09-23T19:06:59.236Z,10.10
2022-09-23T19:09:30.160Z,11.80
2022-09-23T19:12:02.395Z,9.20
2022-09-23T19:14:33.122Z,11.30
2022-09-23T19:17:05.277Z,10.60
2022-09-23T19:19:36.246Z,14.40
2022-09-23T19:22:07.027Z,11.90
2022-09-23T19:24:37.995Z,11.20
2022-09-23T19:27:08.729Z,13.70
2022-09-23T19:29:40.457Z,10.90
2022-09-23T19:32:11.341Z,13.20
2022-09-23T19:34:44.235Z,9.20
2022-09-23T19:37:16.505Z,9.60
2022-09-23T19:39:47.773Z,9.80
2022-09-23T19:42:18.478Z,8.90
2022-09-23T19:44:50.565Z,8.70
2022-09-23T19:47:21.416Z,11.20
2022-09-23T19:49:52.553Z,8.50
2022-09-23T19:52:23.837Z,9.70
2022-09-23T19:54:54.809Z,6.80
2022-09-23T19:57:29.611Z,7.20
2022-09-23T20:00:00.613Z,7.70
2022-09-23T20:02:32.282Z,9.20
2022-09-23T20:05:03.159Z,10.70
2022-09-23T20:07:34.080Z,8.70
2022-09-23T20:10:05.482Z,10.60
2022-09-23T20:12:37.107Z,7.30
2022-09-23T20:15:09.404Z,8.60
2022-09-23T20:20:25.722Z,10.40
2022-09-23T20:22:56.641Z,9.50
2022-09-23T20:25:27.322Z,8.00
2022-09-23T20:27:58.290Z,8.20
2022-09-23T20:30:29.721Z,7.80
2022-09-23T20:33:00.805Z,8.60
2022-09-23T20:35:32.981Z,8.00
2022-09-23T20:38:07.856Z,11.50
2022-09-23T20:40:39.410Z,6.30
2022-09-23T20:43:10.434Z,7.10
2022-09-23T20:45:41.341Z,7.00
2022-09-23T20:48:12.104Z,8.70
2022-09-23T20:50:43.089Z,8.50
2022-09-23T20:53:13.821Z,8.60
2022-09-23T20:55:53.273Z,11.30
2022-09-23T20:58:29.229Z,8.30
2022-09-23T21:01:05.713Z,10.00
2022-09-23T21:03:36.647Z,10.30
2022-09-23T21:06:09.652Z,10.50
2022-09-23T21:08:40.702Z,7.90
2022-09-23T21:11:15.937Z,11.40
2022-09-23T21:13:50.397Z,12.10
2022-09-23T21:16:23.200Z,10.00
2022-09-23T21:18:54.566Z,12.90
2022-09-23T21:21:25.342Z,13.60
2022-09-23T21:24:17.502Z,12.90
2022-09-23T21:26:47.437Z,18.60
2022-09-23T21:29:18.268Z,14.20
2022-09-23T21:31:49.647Z,16.10
2022-09-23T21:34:20.460Z,13.20
2022-09-23T21:36:51.274Z,16.60
2022-09-23T21:39:21.932Z,14.90
2022-09-23T21:41:52.486Z,14.40
2022-09-23T21:44:23.151Z,11.90
2022-09-23T21:46:54.475Z,10.80
2022-09-23T21:49:25.356Z,15.40
2022-09-23T21:51:58.942Z,9.40
2022-09-23T21:54:31.323Z,9.60
2022-09-23T21:57:02.062Z,11.50
2022-09-23T21:59:34.058Z,11.10
2022-09-23T22:02:04.787Z,9.20
2022-09-23T22:04:35.484Z,11.60
2022-09-23T22:07:06.220Z,12.00
2022-09-23T22:09:36.889Z,12.00
2022-09-23T22:12:09.924Z,14.00
2022-09-23T22:14:41.050Z,10.90
2022-09-23T22:17:14.599Z,9.70
2022-09-23T22:19:47.254Z,9.90
2022-09-23T22:22:19.979Z,15.30
2022-09-23T22:24:51.844Z,8.00
2022-09-23T22:27:23.671Z,16.60
2022-09-23T22:30:12.127Z,6.90
2022-09-23T22:32:43.675Z,9.10
2022-09-23T22:35:17.727Z,8.00
2022-09-23T22:37:48.624Z,9.60
2022-09-23T22:40:19.596Z,7.60
2022-09-23T22:42:50.327Z,11.70
2022-09-23T22:45:21.079Z,10.10
2022-09-23T22:47:53.284Z,8.80
2022-09-23T22:50:23.947Z,8.00
2022-09-23T22:52:54.654Z,8.50
2022-09-23T22:55:25.408Z,7.10
2022-09-23T22:57:55.941Z,7.00
2022-09-23T23:00:27.907Z,6.40
2022-09-23T23:03:00.240Z,7.10
2022-09-23T23:05:30.915Z,7.00
2022-09-23T23:08:02.228Z,6.30
2022-09-23T23:10:33.139Z,9.40
2022-09-23T23:13:05.330Z,8.70
2022-09-23T23:15:38.518Z,6.80
2022-09-23T23:18:09.288Z,7.70
2022-09-23T23:20:40.153Z,7.80
2022-09-23T23:23:10.806Z,5.90
2022-09-23T23:25:41.514Z,6.90
2022-09-23T23:28:12.139Z,5.30
2022-09-23T23:30:42.796Z,5.80
2022-09-23T23:33:13.395Z,6.80
2022-09-23T23:35:52.591Z,6.50
2022-09-23T23:38:23.227Z,6.60
2022-09-23T23:40:55.466Z,6.10
2022-09-23T23:43:26.263Z,7.20
2022-09-23T23:45:57.238Z,6.60
2022-09-23T23:48:29.183Z,8.20
2022-09-23T23:51:01.403Z,6.40
2022-09-23T23:53:34.700Z,4.10
2022-09-23T23:56:07.926Z,5.70
2022-09-23T23:58:39.266Z,4.60
